Time;durP1;ratioP1;P1;durP2;ratioP2;P2;SDS_P1;SDS_P2;PMS_P1;PMS_P2;Temp;Humidity;BMP_temperature;BMP_pressure;BME280_temperature;BME280_humidity;BME280_pressure;Samples;Min_cycle;Max_cycle;Signal;HPM_P1;HPM_P2
2021/03/30 04:01:15;;;;;;;32.22;20.05;;;8.20;99.90;;;;;;5516473;23;20239;-69
2021/03/30 04:03:49;;;;;;;32.42;19.42;;;8.10;99.90;;;;;;4880524;29;20207;-69
2021/03/30 04:06:18;;;;;;;33.40;21.20;;;8.10;99.90;;;;;;4880876;29;20227;-69
2021/03/30 04:08:48;;;;;;;33.80;20.15;;;8.10;99.90;;;;;;4880658;29;20216;-69
2021/03/30 04:11:16;;;;;;;32.20;20.25;;;8.10;99.90;;;;;;4878793;29;20228;-70
2021/03/30 04:13:44;;;;;;;34.80;21.55;;;8.10;99.90;;;;;;4881517;29;20285;-69
2021/03/30 04:16:11;;;;;;;28.35;18.50;;;8.00;99.90;;;;;;4868951;29;20612;-70
2021/03/30 04:18:40;;;;;;;43.60;20.80;;;8.00;99.90;;;;;;4863803;29;20221;-70
2021/03/30 04:21:10;;;;;;;35.15;21.30;;;8.10;99.90;;;;;;4874841;29;20223;-70
2021/03/30 04:23:44;;;;;;;33.65;19.40;;;8.00;99.90;;;;;;4863878;29;20223;-70
2021/03/30 04:26:10;;;;;;;32.80;20.10;;;8.00;99.90;;;;;;4862300;29;20208;-70
2021/03/30 04:28:36;;;;;;;33.60;20.45;;;8.00;99.90;;;;;;4864186;29;20212;-70
2021/03/30 04:31:02;;;;;;;34.10;20.27;;;8.00;99.90;;;;;;4862664;29;20224;-70
2021/03/30 04:33:29;;;;;;;35.58;21.05;;;8.00;99.90;;;;;;4862580;29;20201;-69
2021/03/30 04:35:56;;;;;;;31.83;20.00;;;8.00;99.90;;;;;;4861309;29;20693;-70
2021/03/30 04:38:22;;;;;;;32.75;20.33;;;8.00;99.90;;;;;;4862004;29;20232;-70
2021/03/30 04:40:54;;;;;;;31.00;20.45;;;8.00;99.90;;;;;;4861192;29;20277;-70
2021/03/30 04:43:20;;;;;;;30.88;21.10;;;8.00;99.90;;;;;;4861804;29;20519;-70
2021/03/30 04:45:47;;;;;;;38.45;19.85;;;8.00;99.90;;;;;;4861744;29;20256;-70
2021/03/30 04:48:13;;;;;;;31.90;19.75;;;8.00;99.90;;;;;;4861369;29;20208;-70
2021/03/30 04:50:41;;;;;;;29.77;18.90;;;8.00;99.90;;;;;;4861295;29;20673;-71
2021/03/30 04:53:07;;;;;;;27.60;19.17;;;8.00;99.90;;;;;;4861687;29;20268;-68
2021/03/30 04:55:34;;;;;;;29.10;18.73;;;8.00;99.90;;;;;;4860824;29;20212;-68
2021/03/30 04:58:00;;;;;;;27.60;18.73;;;8.00;99.90;;;;;;4862155;29;20285;-68
2021/03/30 05:00:26;;;;;;;26.60;19.77;;;8.00;99.90;;;;;;4861673;29;20237;-68
2021/03/30 05:02:52;;;;;;;28.92;18.90;;;8.00;99.90;;;;;;4861603;29;20213;-68
2021/03/30 05:05:19;;;;;;;24.70;17.92;;;8.00;99.90;;;;;;4862314;29;20303;-68
2021/03/30 05:07:46;;;;;;;27.85;17.98;;;8.10;99.90;;;;;;4861714;29;20428;-68
2021/03/30 05:10:13;;;;;;;21.95;18.85;;;8.00;99.90;;;;;;4862321;29;20216;-71
2021/03/30 05:12:39;;;;;;;25.30;18.08;;;8.10;99.90;;;;;;4877478;29;20267;-70
2021/03/30 05:15:07;;;;;;;27.70;17.92;;;8.10;99.90;;;;;;4872092;29;20212;-71
2021/03/30 05:17:34;;;;;;;31.30;18.35;;;8.10;99.90;;;;;;4867226;29;20236;-71
2021/03/30 05:20:00;;;;;;;29.20;17.33;;;8.10;99.90;;;;;;4862072;29;20703;-71
2021/03/30 05:22:26;;;;;;;29.00;17.75;;;8.10;99.90;;;;;;4864006;29;20228;-71
2021/03/30 05:24:54;;;;;;;24.92;17.35;;;8.20;99.90;;;;;;4860835;29;20588;-71
2021/03/30 05:27:20;;;;;;;25.92;16.67;;;8.20;99.90;;;;;;4874530;29;20232;-71
2021/03/30 05:29:46;;;;;;;25.55;15.73;;;8.40;99.90;;;;;;4880246;29;20628;-73
2021/03/30 05:32:14;;;;;;;21.50;15.98;;;8.40;99.90;;;;;;4864384;29;20736;-71
2021/03/30 05:34:40;;;;;;;16.42;14.68;;;8.50;99.90;;;;;;4872636;29;20293;-71
2021/03/30 05:37:07;;;;;;;17.48;14.80;;;8.50;99.90;;;;;;4862036;29;20233;-72
2021/03/30 05:39:33;;;;;;;18.67;14.05;;;8.50;99.90;;;;;;4866200;29;20211;-71
2021/03/30 05:42:00;;;;;;;20.95;15.52;;;8.60;99.90;;;;;;4878351;29;20610;-71
2021/03/30 05:44:27;;;;;;;15.30;13.48;;;8.50;99.90;;;;;;4872174;29;20566;-71
2021/03/30 05:47:04;;;;;;;18.00;13.40;;;8.60;99.90;;;;;;4879619;29;20211;-71
2021/03/30 05:49:31;;;;;;;18.00;13.45;;;8.60;99.90;;;;;;4876787;29;20283;-71
2021/03/30 05:52:00;;;;;;;14.27;11.90;;;8.70;99.90;;;;;;4878938;29;20296;-70
2021/03/30 05:54:31;;;;;;;21.50;14.40;;;8.70;99.90;;;;;;4865166;29;20239;-71
2021/03/30 05:56:59;;;;;;;15.88;13.07;;;8.70;99.90;;;;;;4860956;29;20550;-71
2021/03/30 05:59:28;;;;;;;15.57;12.88;;;8.80;99.90;;;;;;4873398;29;20581;-72
2021/03/30 06:01:56;;;;;;;17.15;13.27;;;8.80;99.90;;;;;;4868526;29;20235;-72
2021/03/30 06:04:23;;;;;;;15.60;13.80;;;8.80;99.90;;;;;;4864663;29;20214;-71
2021/03/30 06:06:49;;;;;;;17.35;13.25;;;8.90;99.90;;;;;;4860200;29;20243;-71
2021/03/30 06:09:18;;;;;;;19.80;14.00;;;8.90;99.90;;;;;;4896692;29;20321;-71
2021/03/30 06:11:44;;;;;;;19.67;12.23;;;9.00;99.90;;;;;;4881050;29;20239;-72
2021/03/30 06:14:10;;;;;;;17.83;12.63;;;9.10;99.90;;;;;;4878330;29;20318;-69
2021/03/30 06:16:39;;;;;;;13.50;12.10;;;9.10;99.90;;;;;;4867943;29;20232;-69
2021/03/30 06:19:08;;;;;;;13.00;11.70;;;9.20;99.90;;;;;;4860758;29;20995;-69
2021/03/30 06:21:36;;;;;;;13.93;11.43;;;9.30;99.90;;;;;;4887702;29;20331;-69
2021/03/30 06:24:28;;;;;;;12.13;10.93;;;9.30;99.90;;;;;;4896706;29;20298;-69
2021/03/30 06:26:57;;;;;;;14.43;11.70;;;9.40;99.90;;;;;;4862911;29;20212;-69
2021/03/30 06:29:25;;;;;;;14.35;10.43;;;9.50;99.90;;;;;;4859641;29;20208;-69
2021/03/30 06:31:54;;;;;;;12.50;10.32;;;9.60;99.90;;;;;;4859820;29;20293;-69
2021/03/30 06:34:26;;;;;;;12.45;10.98;;;9.60;99.90;;;;;;4859905;29;20244;-69
2021/03/30 06:36:52;;;;;;;11.95;10.73;;;9.70;99.90;;;;;;4859339;29;20632;-69
2021/03/30 06:39:18;;;;;;;17.02;10.57;;;9.80;99.90;;;;;;4859356;29;20529;-69
2021/03/30 06:41:48;;;;;;;12.50;9.73;;;9.90;99.90;;;;;;4862391;29;20315;-69
2021/03/30 06:44:26;;;;;;;12.00;10.35;;;9.90;99.90;;;;;;4859451;29;20212;-69
2021/03/30 06:46:57;;;;;;;11.25;10.15;;;10.10;99.90;;;;;;4871776;29;20256;-69
2021/03/30 06:49:24;;;;;;;14.68;10.55;;;10.10;99.90;;;;;;4859294;29;20216;-69
2021/03/30 06:51:51;;;;;;;11.90;10.63;;;10.20;99.90;;;;;;4858457;29;20331;-69
2021/03/30 06:54:17;;;;;;;14.77;9.45;;;10.30;99.90;;;;;;4858933;29;20247;-70
2021/03/30 06:56:49;;;;;;;11.48;9.50;;;10.40;99.90;;;;;;4867941;29;20231;-70
2021/03/30 06:59:16;;;;;;;10.80;9.55;;;10.50;99.90;;;;;;4878047;29;20251;-70
2021/03/30 07:01:44;;;;;;;11.60;10.40;;;10.60;99.90;;;;;;4866622;29;20244;-69
2021/03/30 07:04:12;;;;;;;10.88;9.75;;;10.70;99.90;;;;;;4877697;29;20212;-70
2021/03/30 07:06:39;;;;;;;14.13;10.25;;;10.80;99.90;;;;;;4865685;29;20514;-70
2021/03/30 07:09:09;;;;;;;22.27;10.65;;;10.90;99.90;;;;;;4859055;29;20652;-70
2021/03/30 07:11:37;;;;;;;12.35;9.63;;;11.00;99.90;;;;;;4869671;29;20239;-70
2021/03/30 07:14:04;;;;;;;14.27;9.32;;;11.10;99.90;;;;;;4871544;29;20291;-71
2021/03/30 07:16:35;;;;;;;9.23;8.38;;;11.20;99.90;;;;;;4859263;29;20658;-71
2021/03/30 07:19:02;;;;;;;10.65;9.63;;;11.20;99.90;;;;;;4864201;29;20212;-70
2021/03/30 07:21:34;;;;;;;10.23;9.32;;;11.30;99.90;;;;;;4877581;29;20239;-71
2021/03/30 07:24:06;;;;;;;13.18;9.10;;;11.40;99.90;;;;;;4872880;29;20292;-70
2021/03/30 07:26:39;;;;;;;10.63;9.18;;;11.50;99.90;;;;;;4866420;29;20524;-71
2021/03/30 07:29:07;;;;;;;12.27;9.13;;;11.60;99.90;;;;;;4873657;29;20208;-70
2021/03/30 07:31:38;;;;;;;10.38;8.88;;;11.70;99.90;;;;;;4859274;29;20239;-71
2021/03/30 07:34:09;;;;;;;11.75;8.85;;;11.70;99.90;;;;;;4862235;29;20219;-71
2021/03/30 07:36:41;;;;;;;12.88;9.23;;;11.80;99.90;;;;;;4877357;29;20813;-71
2021/03/30 07:39:09;;;;;;;12.20;10.63;;;11.90;99.90;;;;;;4864114;29;20228;-70
2021/03/30 07:41:38;;;;;;;10.00;9.13;;;11.90;99.90;;;;;;4862824;29;20295;-71
2021/03/30 07:44:06;;;;;;;10.02;9.13;;;12.00;99.90;;;;;;4877492;29;20669;-71
2021/03/30 07:46:32;;;;;;;11.38;9.38;;;12.10;99.90;;;;;;4875039;29;20205;-71
2021/03/30 07:49:00;;;;;;;11.15;8.88;;;12.10;99.90;;;;;;4858775;29;20209;-71
2021/03/30 07:51:34;;;;;;;10.10;9.10;;;12.20;99.90;;;;;;4872487;29;20224;-72
2021/03/30 07:54:11;;;;;;;12.25;9.18;;;12.30;99.90;;;;;;4877170;29;20216;-72
2021/03/30 07:56:54;;;;;;;13.45;9.50;;;12.40;99.90;;;;;;4876896;29;20227;-72
2021/03/30 07:59:48;;;;;;;13.07;9.65;;;12.50;99.90;;;;;;4876023;29;20222;-73
2021/03/30 08:02:18;;;;;;;9.57;8.50;;;12.50;99.90;;;;;;4848970;29;20322;-71
2021/03/30 08:05:05;;;;;;;9.30;8.50;;;12.60;99.90;;;;;;4871355;29;20232;-71
2021/03/30 08:07:53;;;;;;;9.90;9.02;;;12.70;99.90;;;;;;4880594;29;20215;-71
2021/03/30 08:10:22;;;;;;;10.27;8.55;;;12.80;99.90;;;;;;4871902;29;20653;-71
2021/03/30 08:12:48;;;;;;;10.43;8.23;;;12.80;99.90;;;;;;4862207;29;20209;-71
2021/03/30 08:15:42;;;;;;;10.57;7.78;;;12.90;99.90;;;;;;4869351;29;20221;-70
2021/03/30 08:18:09;;;;;;;11.57;9.20;;;13.00;99.90;;;;;;4861795;29;20231;-70
2021/03/30 08:20:51;;;;;;;12.35;8.80;;;13.10;99.90;;;;;;4868280;29;20229;-70
2021/03/30 08:23:17;;;;;;;18.33;9.00;;;13.20;99.90;;;;;;4877098;29;20333;-70
2021/03/30 08:25:47;;;;;;;13.20;9.18;;;13.20;99.90;;;;;;4872271;29;20207;-70
2021/03/30 08:28:52;;;;;;;10.50;8.47;;;13.30;99.90;;;;;;4876270;29;20205;-70
2021/03/30 08:31:22;;;;;;;12.25;9.10;;;13.40;99.90;;;;;;4862407;29;20495;-70
2021/03/30 08:33:50;;;;;;;9.07;8.20;;;13.50;99.90;;;;;;4881134;29;20212;-70
2021/03/30 08:36:19;;;;;;;9.03;8.13;;;13.60;99.90;;;;;;4877064;29;20504;-71
2021/03/30 08:38:48;;;;;;;13.77;8.23;;;13.70;99.90;;;;;;4862675;29;20830;-71
2021/03/30 08:41:51;;;;;;;9.80;8.87;;;13.80;99.90;;;;;;4873915;29;21029;-71
2021/03/30 08:44:18;;;;;;;9.80;8.63;;;13.90;99.90;;;;;;4880250;29;20483;-71
2021/03/30 08:46:46;;;;;;;12.03;8.47;;;14.00;99.90;;;;;;4862610;29;20548;-71
2021/03/30 08:49:28;;;;;;;12.27;10.30;;;14.10;99.90;;;;;;4867342;29;20469;-71
2021/03/30 08:51:58;;;;;;;10.10;8.03;;;14.20;99.90;;;;;;4876463;29;20484;-71
2021/03/30 08:54:26;;;;;;;9.70;8.80;;;14.30;99.90;;;;;;4868327;29;20958;-70
2021/03/30 08:57:01;;;;;;;9.63;8.10;;;14.30;99.90;;;;;;4876890;29;20563;-70
2021/03/30 08:59:29;;;;;;;9.53;8.63;;;14.40;99.90;;;;;;4879578;29;20499;-71
2021/03/30 09:01:59;;;;;;;9.07;8.17;;;14.50;99.90;;;;;;4874788;29;20492;-71
2021/03/30 09:04:31;;;;;;;9.40;8.17;;;14.60;99.90;;;;;;4876627;29;20468;-69
2021/03/30 09:06:58;;;;;;;11.70;8.37;;;14.60;99.90;;;;;;4879997;29;20464;-69
2021/03/30 09:09:27;;;;;;;9.17;8.20;;;14.70;99.90;;;;;;4874172;29;20968;-71
2021/03/30 09:11:54;;;;;;;10.07;8.90;;;14.70;99.90;;;;;;4863455;29;20928;-70
2021/03/30 09:14:22;;;;;;;8.90;8.00;;;14.80;99.90;;;;;;4873594;29;21006;-70
2021/03/30 09:16:51;;;;;;;8.30;7.60;;;14.90;99.90;;;;;;4861231;29;21036;-71
2021/03/30 09:19:25;;;;;;;9.60;8.17;;;15.00;99.90;;;;;;4865452;29;21039;-70
2021/03/30 09:22:00;;;;;;;9.57;7.50;;;15.10;99.90;;;;;;4866171;29;20886;-70
2021/03/30 09:24:44;;;;;;;8.83;7.97;;;15.10;99.90;;;;;;4878595;29;20467;-71
2021/03/30 09:27:11;;;;;;;8.33;7.60;;;15.20;99.90;;;;;;4876632;29;20465;-69
2021/03/30 09:29:38;;;;;;;10.17;7.20;;;15.20;99.90;;;;;;4860525;29;20476;-70
2021/03/30 09:32:06;;;;;;;8.17;7.30;;;15.30;99.90;;;;;;4860722;29;20529;-70
2021/03/30 09:34:32;;;;;;;11.40;7.63;;;15.40;99.90;;;;;;4860463;29;20951;-72
2021/03/30 09:37:00;;;;;;;8.67;7.20;;;15.50;99.90;;;;;;4860280;29;20489;-71
2021/03/30 09:39:28;;;;;;;10.53;7.90;;;15.50;99.90;;;;;;4860146;29;21036;-71
2021/03/30 09:41:56;;;;;;;8.60;7.80;;;15.60;99.90;;;;;;4860020;29;20798;-71
2021/03/30 09:44:25;;;;;;;7.40;6.80;;;15.60;99.90;;;;;;4860552;29;20792;-69
2021/03/30 09:46:54;;;;;;;8.23;7.17;;;15.70;99.90;;;;;;4860489;29;20548;-72
2021/03/30 09:49:22;;;;;;;7.27;6.60;;;15.80;99.90;;;;;;4860048;29;20465;-71
2021/03/30 09:51:49;;;;;;;7.67;7.07;;;15.90;99.90;;;;;;4860239;29;20564;-69
2021/03/30 09:54:38;;;;;;;7.50;6.87;;;16.00;99.90;;;;;;4859690;29;20476;-71
2021/03/30 09:57:10;;;;;;;6.43;5.67;;;16.00;99.90;;;;;;4860762;29;20497;-71
2021/03/30 09:59:37;;;;;;;8.00;7.17;;;16.10;99.90;;;;;;4864425;29;20612;-71
2021/03/30 10:02:04;;;;;;;7.63;6.03;;;16.20;99.90;;;;;;4863731;29;20519;-71
2021/03/30 10:04:33;;;;;;;7.00;6.33;;;16.30;99.90;;;;;;4869192;29;20496;-71
2021/03/30 10:07:11;;;;;;;7.07;6.47;;;16.40;99.90;;;;;;4864902;29;20470;-71
2021/03/30 10:09:54;;;;;;;8.10;5.90;;;16.40;99.90;;;;;;4877929;29;20468;-71
2021/03/30 10:12:22;;;;;;;6.80;6.30;;;16.50;99.90;;;;;;4863354;29;20485;-71
2021/03/30 10:14:49;;;;;;;7.30;6.50;;;16.50;99.90;;;;;;4860622;29;20477;-71
2021/03/30 10:17:16;;;;;;;7.37;6.63;;;16.60;99.90;;;;;;4873534;29;20988;-71
2021/03/30 10:19:48;;;;;;;8.70;6.80;;;16.60;99.90;;;;;;4860374;29;20477;-71
2021/03/30 10:22:36;;;;;;;7.20;6.60;;;16.70;99.90;;;;;;4871966;29;20500;-72
2021/03/30 10:25:19;;;;;;;6.43;5.93;;;16.80;99.90;;;;;;4856439;29;20469;-72
2021/03/30 10:27:50;;;;;;;6.30;5.63;;;16.80;99.90;;;;;;4859191;29;20746;-72
2021/03/30 10:30:27;;;;;;;5.63;4.87;;;16.90;99.90;;;;;;4860063;29;20490;-72
2021/03/30 10:32:56;;;;;;;5.33;5.03;;;16.90;99.90;;;;;;4859650;29;20472;-72
2021/03/30 10:35:23;;;;;;;6.00;5.47;;;17.00;99.90;;;;;;4859519;29;20491;-73
2021/03/30 10:37:49;;;;;;;6.10;5.40;;;17.10;99.90;;;;;;4859033;29;20844;-72
2021/03/30 10:40:16;;;;;;;6.40;5.57;;;17.10;99.90;;;;;;4859305;29;20569;-72
2021/03/30 10:42:43;;;;;;;5.10;4.60;;;17.20;99.90;;;;;;4858669;29;20465;-70
2021/03/30 10:45:11;;;;;;;4.53;4.17;;;17.40;99.90;;;;;;4859965;29;20469;-71
2021/03/30 10:47:39;;;;;;;5.17;4.80;;;17.40;99.90;;;;;;4859316;29;22182;-71
2021/03/30 10:50:08;;;;;;;5.40;4.90;;;17.50;99.90;;;;;;4859763;29;20473;-70
2021/03/30 10:52:35;;;;;;;5.30;4.77;;;17.50;99.90;;;;;;4859067;29;20816;-71
2021/03/30 10:55:04;;;;;;;7.03;5.40;;;17.60;99.90;;;;;;4867124;29;20472;-71
2021/03/30 10:57:33;;;;;;;6.10;4.70;;;17.70;99.90;;;;;;4865725;29;20990;-71
2021/03/30 10:59:59;;;;;;;4.73;4.37;;;17.70;99.90;;;;;;4872128;29;20466;-71
2021/03/30 11:02:25;;;;;;;5.37;4.60;;;17.80;99.90;;;;;;4861197;29;20501;-71
2021/03/30 11:04:52;;;;;;;5.60;5.10;;;17.80;99.90;;;;;;4868585;29;20974;-72
2021/03/30 11:07:18;;;;;;;4.77;4.47;;;17.90;99.90;;;;;;4864935;29;20537;-72
2021/03/30 11:09:45;;;;;;;4.20;3.90;;;18.00;99.90;;;;;;4866151;29;20473;-71
2021/03/30 11:12:12;;;;;;;4.70;4.30;;;18.00;99.90;;;;;;4862002;29;20628;-72
2021/03/30 11:14:38;;;;;;;5.40;4.27;;;18.00;99.90;;;;;;4863159;29;20485;-71
2021/03/30 11:17:05;;;;;;;4.23;3.83;;;18.10;99.90;;;;;;4867813;29;20508;-72
2021/03/30 11:19:31;;;;;;;3.03;2.83;;;18.10;99.90;;;;;;4864086;29;20482;-72
2021/03/30 11:21:59;;;;;;;2.97;2.70;;;18.20;99.90;;;;;;4874341;29;20507;-72
2021/03/30 11:24:27;;;;;;;3.00;2.70;;;18.30;99.90;;;;;;4872887;29;20464;-71
2021/03/30 11:26:56;;;;;;;3.43;3.27;;;18.30;99.90;;;;;;4871520;29;20465;-72
2021/03/30 11:29:24;;;;;;;2.60;2.40;;;18.40;99.90;;;;;;4868013;29;20469;-72
2021/03/30 11:34:39;;;;;;;2.40;2.30;;;18.50;99.90;;;;;;4856209;29;20453;-71
2021/03/30 11:37:16;;;;;;;2.80;2.70;;;18.50;99.90;;;;;;4858337;29;20494;-72
2021/03/30 11:39:42;;;;;;;2.93;2.80;;;18.60;99.90;;;;;;4860095;29;20547;-72
2021/03/30 11:42:09;;;;;;;3.13;2.93;;;18.60;99.90;;;;;;4862025;29;20500;-71
2021/03/30 11:44:35;;;;;;;2.57;2.40;;;18.70;99.90;;;;;;4863062;29;20465;-72
2021/03/30 11:47:01;;;;;;;2.57;2.37;;;18.70;99.90;;;;;;4863071;29;20537;-71
2021/03/30 11:49:29;;;;;;;2.63;2.43;;;18.70;99.90;;;;;;4862826;29;20465;-71
2021/03/30 11:51:56;;;;;;;2.37;2.27;;;18.70;99.90;;;;;;4862365;29;20569;-71
2021/03/30 11:54:23;;;;;;;2.47;2.37;;;18.70;99.90;;;;;;4862493;29;20471;-71
2021/03/30 11:56:49;;;;;;;3.40;2.10;;;18.80;99.90;;;;;;4871121;29;20493;-71
2021/03/30 11:59:15;;;;;;;1.83;1.73;;;18.80;99.90;;;;;;4878140;29;20564;-71
2021/03/30 12:01:42;;;;;;;2.23;2.17;;;18.80;99.90;;;;;;4877533;29;20496;-71
2021/03/30 12:04:08;;;;;;;2.53;2.40;;;18.90;99.90;;;;;;4871668;29;20484;-71
2021/03/30 12:06:34;;;;;;;2.20;2.10;;;18.90;99.90;;;;;;4862903;29;20469;-71
2021/03/30 12:09:01;;;;;;;3.17;2.47;;;18.90;99.90;;;;;;4871958;29;20473;-72
2021/03/30 12:11:29;;;;;;;2.77;2.63;;;19.00;99.90;;;;;;4867077;29;20950;-73
2021/03/30 12:13:56;;;;;;;2.43;2.20;;;19.00;99.90;;;;;;4870418;29;20476;-73
2021/03/30 12:16:22;;;;;;;2.23;2.13;;;19.00;99.90;;;;;;4867221;29;20472;-73
2021/03/30 12:18:49;;;;;;;2.80;2.60;;;19.10;99.90;;;;;;4877746;29;20821;-72
2021/03/30 12:21:15;;;;;;;2.90;2.70;;;19.20;99.90;;;;;;4870788;29;20575;-72
2021/03/30 12:23:41;;;;;;;2.73;2.63;;;19.20;99.90;;;;;;4865872;29;20465;-72
2021/03/30 12:26:07;;;;;;;4.53;2.67;;;19.20;99.90;;;;;;4875509;29;20468;-73
2021/03/30 12:28:35;;;;;;;2.17;2.10;;;19.30;99.90;;;;;;4867999;29;20517;-72
2021/03/30 12:31:01;;;;;;;2.73;2.63;;;19.30;99.90;;;;;;4877256;29;20503;-72
2021/03/30 12:33:27;;;;;;;2.80;2.70;;;19.40;99.90;;;;;;4871813;29;20963;-71
2021/03/30 12:35:54;;;;;;;2.40;2.40;;;19.40;99.70;;;;;;4874744;29;20834;-72
2021/03/30 12:38:20;;;;;;;2.80;2.60;;;19.50;99.90;;;;;;4874431;29;20501;-71
2021/03/30 12:40:47;;;;;;;2.60;2.40;;;19.50;99.90;;;;;;4870340;29;20479;-73
2021/03/30 12:43:13;;;;;;;2.37;2.27;;;19.60;99.90;;;;;;4869403;29;20876;-71
2021/03/30 12:45:40;;;;;;;2.63;2.47;;;19.60;99.90;;;;;;4875271;29;20464;-74
2021/03/30 12:48:09;;;;;;;2.77;2.60;;;19.60;99.90;;;;;;4879744;29;20468;-74
2021/03/30 12:50:36;;;;;;;2.43;2.30;;;19.70;99.30;;;;;;4868170;29;20859;-71
2021/03/30 12:53:03;;;;;;;2.70;2.53;;;19.70;98.40;;;;;;4874568;29;20593;-77
2021/03/30 12:55:30;;;;;;;2.30;2.20;;;19.80;97.40;;;;;;4879710;29;20475;-73
2021/03/30 12:57:56;;;;;;;3.30;3.03;;;19.80;97.10;;;;;;4880621;29;20499;-72
2021/03/30 13:00:23;;;;;;;2.90;2.80;;;19.80;97.50;;;;;;4879746;29;20656;-72
2021/03/30 13:02:50;;;;;;;3.47;3.17;;;19.70;97.20;;;;;;4879921;29;20468;-72
2021/03/30 13:05:17;;;;;;;3.07;2.80;;;19.70;97.80;;;;;;4880260;29;20523;-72
2021/03/30 13:07:44;;;;;;;2.80;2.70;;;19.70;97.90;;;;;;4879683;29;20472;-72
2021/03/30 13:10:12;;;;;;;2.67;2.57;;;19.80;98.50;;;;;;4864060;29;20943;-72
2021/03/30 13:12:38;;;;;;;3.80;3.57;;;19.80;97.00;;;;;;4861035;29;20479;-72
2021/03/30 13:15:06;;;;;;;5.40;3.23;;;19.90;96.70;;;;;;4861326;29;20488;-72
2021/03/30 13:17:32;;;;;;;5.17;2.57;;;19.90;95.80;;;;;;4865247;29;20508;-72
2021/03/30 13:20:00;;;;;;;4.17;3.17;;;19.90;95.20;;;;;;4879899;29;20472;-72
2021/03/30 13:22:26;;;;;;;4.83;3.40;;;19.90;95.10;;;;;;4879694;29;20503;-72
2021/03/30 13:24:55;;;;;;;3.50;3.30;;;19.90;96.20;;;;;;4873266;29;20525;-72
2021/03/30 13:27:22;;;;;;;4.00;3.70;;;19.90;96.50;;;;;;4861512;29;20560;-72
2021/03/30 13:29:48;;;;;;;3.17;2.97;;;19.90;96.40;;;;;;4861600;29;20477;-72
2021/03/30 13:32:15;;;;;;;5.10;3.30;;;19.90;96.00;;;;;;4860357;29;20607;-72
2021/03/30 13:34:43;;;;;;;4.00;3.30;;;19.90;94.30;;;;;;4870482;29;20476;-71
2021/03/30 13:37:11;;;;;;;3.77;3.47;;;20.00;95.00;;;;;;4879012;29;20483;-71
2021/03/30 13:39:37;;;;;;;3.60;3.40;;;20.00;94.60;;;;;;4879017;29;20956;-71
2021/03/30 13:42:05;;;;;;;4.33;3.97;;;19.90;94.20;;;;;;4878470;29;20488;-71
2021/03/30 13:44:31;;;;;;;4.00;3.70;;;19.90;95.40;;;;;;4860589;29;20529;-71
2021/03/30 13:46:59;;;;;;;4.73;4.30;;;19.90;95.90;;;;;;4860770;29;20477;-71
2021/03/30 13:49:25;;;;;;;4.60;4.20;;;20.00;94.80;;;;;;4860776;29;20531;-71
2021/03/30 13:51:52;;;;;;;4.10;3.80;;;20.00;94.90;;;;;;4860824;29;20493;-71
2021/03/30 13:54:19;;;;;;;6.20;4.20;;;20.00;95.30;;;;;;4860075;29;20796;-71
2021/03/30 13:56:45;;;;;;;6.07;4.60;;;20.00;95.70;;;;;;4860722;29;20496;-71
2021/03/30 13:59:12;;;;;;;5.87;5.20;;;20.00;96.10;;;;;;4860952;29;20575;-71
2021/03/30 14:01:39;;;;;;;4.63;4.33;;;20.10;96.20;;;;;;4860517;29;20497;-71
2021/03/30 14:04:06;;;;;;;3.80;3.60;;;20.00;95.80;;;;;;4860114;29;20571;-71
2021/03/30 14:06:32;;;;;;;4.50;4.10;;;20.10;95.40;;;;;;4860821;29;20465;-71
2021/03/30 14:08:59;;;;;;;3.33;3.10;;;20.10;94.20;;;;;;4860938;29;20962;-71
2021/03/30 14:11:32;;;;;;;4.73;4.33;;;20.10;94.20;;;;;;4863949;29;20492;-71
2021/03/30 14:14:06;;;;;;;4.20;4.00;;;20.10;93.90;;;;;;4885203;29;20463;-72
2021/03/30 14:16:34;;;;;;;5.00;4.50;;;20.20;94.20;;;;;;4886871;29;20473;-71
2021/03/30 14:19:09;;;;;;;4.03;3.80;;;20.20;94.60;;;;;;4887072;29;20499;-71
2021/03/30 14:21:41;;;;;;;4.00;3.80;;;20.20;94.70;;;;;;4887508;29;20487;-72
2021/03/30 14:24:38;;;;;;;4.53;3.90;;;20.20;93.60;;;;;;4886687;29;20483;-72
2021/03/30 14:27:06;;;;;;;8.13;5.07;;;20.20;93.00;;;;;;4884167;29;20463;-73
2021/03/30 14:29:44;;;;;;;5.70;5.30;;;20.20;92.70;;;;;;4884054;29;20492;-72
2021/03/30 14:32:10;;;;;;;5.20;4.80;;;20.20;93.00;;;;;;4880413;29;20491;-72
2021/03/30 14:34:36;;;;;;;6.63;4.60;;;20.10;92.70;;;;;;4879263;29;20532;-73
2021/03/30 14:37:03;;;;;;;5.70;4.33;;;20.20;92.90;;;;;;4876611;29;20986;-72
2021/03/30 14:39:29;;;;;;;4.47;4.03;;;20.20;93.10;;;;;;4876531;29;20846;-70
2021/03/30 14:42:02;;;;;;;6.73;4.57;;;20.30;93.10;;;;;;4876817;29;20583;-73
2021/03/30 14:44:32;;;;;;;4.43;3.90;;;20.30;93.20;;;;;;4862514;29;20462;-71
2021/03/30 14:47:11;;;;;;;5.40;4.50;;;20.30;92.90;;;;;;4861419;29;20576;-71
2021/03/30 14:52:23;;;;;;;5.17;4.70;;;20.20;92.60;;;;;;4860257;29;20493;-71
2021/03/30 14:54:59;;;;;;;5.60;4.40;;;20.30;92.80;;;;;;4859643;29;20465;-71
2021/03/30 14:57:29;;;;;;;7.77;4.50;;;20.30;92.60;;;;;;4872508;29;20916;-71
2021/03/30 14:59:58;;;;;;;5.97;4.37;;;20.30;92.60;;;;;;4863076;29;20604;-71
2021/03/30 15:02:38;;;;;;;5.60;4.20;;;20.30;91.90;;;;;;4875413;29;20579;-71
2021/03/30 15:05:07;;;;;;;4.33;3.60;;;20.30;91.70;;;;;;4865515;29;20962;-71
2021/03/30 15:07:33;;;;;;;4.53;4.13;;;20.30;92.10;;;;;;4870649;29;20460;-71
2021/03/30 15:10:01;;;;;;;4.50;4.20;;;20.30;91.70;;;;;;4861993;29;20469;-71
2021/03/30 15:12:27;;;;;;;4.33;4.13;;;20.30;91.70;;;;;;4874749;29;20484;-71
2021/03/30 15:14:53;;;;;;;5.50;4.33;;;20.30;92.00;;;;;;4875394;29;20484;-71
2021/03/30 15:17:20;;;;;;;5.23;3.83;;;20.30;92.30;;;;;;4869367;29;20489;-71
2021/03/30 15:19:46;;;;;;;4.50;4.13;;;20.20;91.90;;;;;;4867382;29;20476;-72
2021/03/30 15:22:14;;;;;;;5.30;4.80;;;20.20;92.40;;;;;;4869625;29;20566;-71
2021/03/30 15:24:40;;;;;;;4.50;4.17;;;20.10;91.50;;;;;;4865574;29;20562;-71
2021/03/30 15:27:07;;;;;;;5.37;4.87;;;20.10;91.10;;;;;;4865827;29;20516;-72
2021/03/30 15:29:33;;;;;;;10.50;4.90;;;20.10;91.40;;;;;;4863368;29;20479;-71
2021/03/30 15:32:00;;;;;;;4.37;3.97;;;20.10;91.20;;;;;;4862287;29;20508;-71
2021/03/30 15:34:27;;;;;;;5.23;3.87;;;20.00;90.60;;;;;;4869106;29;20469;-71
2021/03/30 15:36:55;;;;;;;4.60;4.20;;;20.00;91.20;;;;;;4862635;29;20496;-71
2021/03/30 15:39:21;;;;;;;5.77;5.20;;;20.00;91.10;;;;;;4862400;29;20759;-71
2021/03/30 15:41:47;;;;;;;5.77;5.23;;;20.00;91.20;;;;;;4880936;29;20496;-71
2021/03/30 15:44:23;;;;;;;13.10;8.50;;;20.00;90.70;;;;;;4881163;29;20781;-72
2021/03/30 15:49:34;;;;;;;10.07;7.60;;;19.90;91.20;;;;;;4862429;29;20460;-71
2021/03/30 15:52:00;;;;;;;5.10;4.80;;;19.90;91.40;;;;;;4861506;29;20493;-72
2021/03/30 15:54:31;;;;;;;7.57;5.60;;;19.90;90.60;;;;;;4869861;29;20468;-71
2021/03/30 15:56:58;;;;;;;18.37;14.27;;;19.90;90.40;;;;;;4878654;29;20566;-71
2021/03/30 15:59:24;;;;;;;7.13;6.17;;;19.80;90.20;;;;;;4867249;29;20970;-72
2021/03/30 16:01:50;;;;;;;5.80;4.90;;;19.80;90.60;;;;;;4873909;29;20568;-71
2021/03/30 16:04:16;;;;;;;5.07;4.67;;;19.70;90.40;;;;;;4865137;29;20464;-71
2021/03/30 16:06:44;;;;;;;5.97;4.60;;;19.70;90.40;;;;;;4862670;29;20481;-71
2021/03/30 16:09:10;;;;;;;5.57;4.53;;;19.60;90.80;;;;;;4871189;29;21057;-71
2021/03/30 16:11:37;;;;;;;8.20;6.60;;;19.60;90.90;;;;;;4867824;29;20916;-71
2021/03/30 16:14:03;;;;;;;6.07;5.43;;;19.60;90.80;;;;;;4875503;29;20468;-70
2021/03/30 16:16:29;;;;;;;5.53;5.03;;;19.60;90.70;;;;;;4880461;29;20467;-71
2021/03/30 16:18:55;;;;;;;5.73;5.20;;;19.60;91.00;;;;;;4861677;29;20485;-69
2021/03/30 16:21:22;;;;;;;7.50;4.93;;;19.60;91.60;;;;;;4861527;29;20552;-70
2021/03/30 16:23:49;;;;;;;7.23;5.93;;;19.60;91.50;;;;;;4864668;29;20479;-70
2021/03/30 16:26:15;;;;;;;9.57;5.87;;;19.50;91.80;;;;;;4868006;29;20843;-70
2021/03/30 16:28:41;;;;;;;6.57;5.87;;;19.40;91.80;;;;;;4869729;29;20476;-70
2021/03/30 16:31:08;;;;;;;5.57;5.07;;;19.40;92.30;;;;;;4861060;29;20500;-70
2021/03/30 16:33:34;;;;;;;5.50;4.77;;;19.30;92.40;;;;;;4863224;29;20492;-69
2021/03/30 16:36:00;;;;;;;7.13;5.80;;;19.30;92.70;;;;;;4873862;29;20473;-70
2021/03/30 16:38:26;;;;;;;6.43;5.73;;;19.30;92.80;;;;;;4869718;29;20511;-70
2021/03/30 16:40:53;;;;;;;6.70;5.70;;;19.20;92.70;;;;;;4862415;29;20496;-70
2021/03/30 16:43:20;;;;;;;7.80;5.90;;;19.20;92.60;;;;;;4862833;29;20479;-70
2021/03/30 16:45:46;;;;;;;6.40;5.80;;;19.10;92.50;;;;;;4861860;29;20579;-71
2021/03/30 16:48:13;;;;;;;9.10;5.97;;;19.10;92.30;;;;;;4865762;29;20778;-72
2021/03/30 16:50:39;;;;;;;7.70;7.00;;;19.00;91.60;;;;;;4870206;29;20835;-71
2021/03/30 16:53:05;;;;;;;6.30;5.67;;;19.00;92.00;;;;;;4873993;29;20484;-70
2021/03/30 16:55:32;;;;;;;6.40;5.83;;;18.90;92.10;;;;;;4866362;29;20479;-72
2021/03/30 16:57:59;;;;;;;9.60;5.90;;;18.90;92.20;;;;;;4869041;29;20477;-72
2021/03/30 17:00:26;;;;;;;6.40;5.80;;;18.80;92.60;;;;;;4866911;29;20469;-72